Time;durP1;ratioP1;P1;durP2;ratioP2;P2;SDS_P1;SDS_P2;PMS_P1;PMS_P2;Temp;Humidity;BMP_temperature;BMP_pressure;BME280_temperature;BME280_humidity;BME280_pressure;Samples;Min_cycle;Max_cycle;Signal;HPM_P1;HPM_P2
2023/06/21 00:01:51;;;;;;;6.70;2.33;;;16.50;99.90;;;;;;5013679;28;20206;-64
2023/06/21 00:04:17;;;;;;;4.43;1.92;;;16.50;99.90;;;;;;5013851;28;20630;-64
2023/06/21 00:06:49;;;;;;;6.10;2.58;;;16.50;99.90;;;;;;5013601;28;20204;-64
2023/06/21 00:09:15;;;;;;;8.32;2.70;;;16.50;99.90;;;;;;5013743;28;20633;-64
2023/06/21 00:11:41;;;;;;;8.85;2.70;;;16.50;99.90;;;;;;5013562;28;20178;-64
2023/06/21 00:14:07;;;;;;;3.97;2.03;;;16.40;99.90;;;;;;5013705;28;20175;-65
2023/06/21 00:16:33;;;;;;;5.80;2.55;;;16.40;99.90;;;;;;5013395;28;20230;-65
2023/06/21 00:18:58;;;;;;;4.35;2.10;;;16.30;99.90;;;;;;5013543;28;20524;-64
2023/06/21 00:21:24;;;;;;;6.40;2.40;;;16.30;99.90;;;;;;5013554;28;20214;-62
2023/06/21 00:23:50;;;;;;;6.63;2.58;;;16.30;99.90;;;;;;5008452;28;20171;-63
2023/06/21 00:26:15;;;;;;;5.13;2.35;;;16.30;99.90;;;;;;4998734;28;20704;-64
2023/06/21 00:28:41;;;;;;;6.60;2.53;;;16.20;99.90;;;;;;4995042;28;20172;-64
2023/06/21 00:31:10;;;;;;;6.05;3.10;;;16.20;99.90;;;;;;5013110;28;20179;-64
2023/06/21 00:33:36;;;;;;;3.40;2.35;;;16.10;99.90;;;;;;5013058;28;20584;-64
2023/06/21 00:36:02;;;;;;;5.15;2.17;;;16.10;99.90;;;;;;5013060;28;20182;-65
2023/06/21 00:38:27;;;;;;;6.15;2.10;;;16.00;99.90;;;;;;5012967;28;20529;-64
2023/06/21 00:40:53;;;;;;;4.35;1.92;;;16.00;99.90;;;;;;5012957;28;20298;-63
2023/06/21 00:43:19;;;;;;;5.10;2.30;;;16.00;99.90;;;;;;5025727;28;20181;-64
2023/06/21 00:45:48;;;;;;;5.03;2.58;;;16.00;99.90;;;;;;5028802;28;20645;-64
2023/06/21 00:48:14;;;;;;;7.88;2.50;;;15.90;99.90;;;;;;5014829;28;20170;-64
2023/06/21 00:50:40;;;;;;;8.93;2.40;;;15.90;99.90;;;;;;5020064;28;20189;-64
2023/06/21 00:53:06;;;;;;;7.28;2.92;;;15.80;99.90;;;;;;5013695;28;20248;-72
2023/06/21 00:55:33;;;;;;;5.25;3.00;;;15.80;99.90;;;;;;5023801;28;20262;-66
2023/06/21 00:57:58;;;;;;;3.25;2.10;;;15.80;99.90;;;;;;5024479;28;20174;-63
2023/06/21 01:00:25;;;;;;;5.18;2.35;;;15.80;99.90;;;;;;5029981;28;20292;-64
2023/06/21 01:02:56;;;;;;;5.18;1.83;;;15.80;99.90;;;;;;5013827;28;20206;-64
2023/06/21 01:05:24;;;;;;;6.32;1.90;;;15.80;99.90;;;;;;5012764;28;20182;-63
2023/06/21 01:08:12;;;;;;;6.38;3.08;;;15.70;99.90;;;;;;5012432;28;20187;-64
2023/06/21 01:10:58;;;;;;;4.47;3.20;;;15.40;99.90;;;;;;5012425;28;20177;-63
2023/06/21 01:13:54;;;;;;;6.60;2.90;;;15.60;99.90;;;;;;5012396;28;20179;-63
2023/06/21 01:16:23;;;;;;;7.63;2.60;;;15.60;99.90;;;;;;5012236;28;20297;-64
2023/06/21 01:18:52;;;;;;;5.55;2.72;;;15.50;99.90;;;;;;5012157;28;20193;-63
2023/06/21 01:21:23;;;;;;;6.93;2.92;;;15.40;99.90;;;;;;5012281;28;20253;-63
2023/06/21 01:24:06;;;;;;;5.22;3.10;;;15.40;99.90;;;;;;5012460;28;20182;-63
2023/06/21 01:26:46;;;;;;;6.32;2.80;;;15.40;99.90;;;;;;5012225;28;20171;-63
2023/06/21 01:29:16;;;;;;;6.15;3.10;;;15.40;99.90;;;;;;5012165;28;20170;-63
2023/06/21 01:31:45;;;;;;;5.78;3.28;;;15.40;99.90;;;;;;5012359;28;20698;-64
2023/06/21 01:34:12;;;;;;;6.50;2.60;;;15.40;99.90;;;;;;5012120;28;20169;-64
2023/06/21 01:36:39;;;;;;;8.00;2.38;;;15.40;99.90;;;;;;5012131;28;20193;-64
2023/06/21 01:39:08;;;;;;;6.90;2.40;;;15.40;99.90;;;;;;5012145;28;20183;-65
2023/06/21 01:41:35;;;;;;;6.22;2.47;;;15.30;99.90;;;;;;5011887;28;20214;-64
2023/06/21 01:44:01;;;;;;;4.38;2.50;;;15.30;99.90;;;;;;4994250;28;20170;-63
2023/06/21 01:46:27;;;;;;;3.50;2.58;;;15.20;99.90;;;;;;5011945;28;20182;-63
2023/06/21 01:48:54;;;;;;;5.05;2.45;;;15.20;99.90;;;;;;5012007;28;20174;-64
2023/06/21 01:51:21;;;;;;;5.40;2.40;;;15.20;99.90;;;;;;5011732;28;20167;-64
2023/06/21 01:53:47;;;;;;;5.47;2.53;;;15.20;99.90;;;;;;5011335;28;20167;-64
2023/06/21 01:56:16;;;;;;;10.38;2.92;;;15.20;99.90;;;;;;5011302;28;20733;-64
2023/06/21 01:58:46;;;;;;;4.63;2.40;;;15.20;99.90;;;;;;5011621;28;20198;-64
2023/06/21 02:01:13;;;;;;;5.18;2.40;;;15.20;99.90;;;;;;5011643;28;20301;-65
2023/06/21 02:03:56;;;;;;;7.38;2.67;;;15.20;99.90;;;;;;5011132;28;20177;-63
2023/06/21 02:06:26;;;;;;;3.72;2.25;;;15.10;99.90;;;;;;5026043;28;20583;-64
2023/06/21 02:08:52;;;;;;;5.57;2.30;;;15.10;99.90;;;;;;5013050;28;20660;-64
2023/06/21 02:11:19;;;;;;;5.47;2.38;;;15.20;99.90;;;;;;5012316;28;20198;-64
2023/06/21 02:13:48;;;;;;;9.45;2.20;;;15.20;99.90;;;;;;5023185;28;20178;-65
2023/06/21 02:16:15;;;;;;;6.88;2.10;;;15.20;99.90;;;;;;5011288;28;20181;-63
2023/06/21 02:18:41;;;;;;;5.78;2.40;;;15.30;99.90;;;;;;4993449;28;20177;-63
2023/06/21 02:21:06;;;;;;;5.40;2.47;;;15.20;99.90;;;;;;5011128;28;20206;-64
2023/06/21 02:23:32;;;;;;;5.28;2.47;;;15.20;99.90;;;;;;5011743;28;20213;-63
2023/06/21 02:25:58;;;;;;;5.18;2.33;;;15.20;99.90;;;;;;5011395;28;20752;-64
2023/06/21 02:28:23;;;;;;;4.18;2.47;;;15.20;99.90;;;;;;5011392;28;20692;-64
2023/06/21 02:30:49;;;;;;;7.57;2.65;;;15.10;99.90;;;;;;5011082;28;20649;-64
2023/06/21 02:33:15;;;;;;;6.80;2.53;;;15.10;99.90;;;;;;5011215;28;20178;-64
2023/06/21 02:35:40;;;;;;;7.03;2.85;;;15.10;99.90;;;;;;5011165;28;20281;-64
2023/06/21 02:38:06;;;;;;;4.15;2.67;;;15.10;99.90;;;;;;5009964;28;20167;-63
2023/06/21 02:40:32;;;;;;;4.65;2.80;;;15.00;99.90;;;;;;4998178;28;20669;-63
2023/06/21 02:42:58;;;;;;;5.65;2.80;;;15.10;99.90;;;;;;5011209;28;20174;-63
2023/06/21 02:45:23;;;;;;;6.30;2.35;;;14.90;99.90;;;;;;5000595;28;20180;-63
2023/06/21 02:47:49;;;;;;;9.02;2.83;;;14.90;99.90;;;;;;4991532;28;20203;-63
2023/06/21 02:50:18;;;;;;;5.70;3.03;;;14.90;99.90;;;;;;4991423;28;20539;-63
2023/06/21 02:52:44;;;;;;;7.78;2.95;;;15.00;99.90;;;;;;4991243;28;20635;-63
2023/06/21 02:55:10;;;;;;;6.22;2.53;;;14.80;99.90;;;;;;4991325;28;20174;-63
2023/06/21 02:57:36;;;;;;;3.38;2.67;;;14.90;99.90;;;;;;5001735;28;20185;-63
2023/06/21 03:00:17;;;;;;;4.18;2.67;;;14.80;99.90;;;;;;5010778;28;20210;-64
2023/06/21 03:02:44;;;;;;;4.63;2.80;;;14.80;99.90;;;;;;5010798;28;20217;-63
2023/06/21 03:05:11;;;;;;;5.93;2.42;;;14.90;99.90;;;;;;5011123;28;20174;-63
2023/06/21 03:07:38;;;;;;;4.72;2.78;;;14.70;99.90;;;;;;5023986;28;20181;-63
2023/06/21 03:10:04;;;;;;;5.72;2.55;;;14.80;99.90;;;;;;5029759;28;20209;-65
2023/06/21 03:12:31;;;;;;;6.13;2.70;;;14.70;99.90;;;;;;5021985;28;20178;-66
2023/06/21 03:14:56;;;;;;;4.78;2.60;;;14.70;99.90;;;;;;5023322;28;20233;-66
2023/06/21 03:17:22;;;;;;;5.57;3.10;;;;;;;;;;5028639;28;20221;-64
2023/06/21 03:19:48;;;;;;;8.10;2.95;;;14.70;99.90;;;;;;5020081;28;20189;-65
2023/06/21 03:22:13;;;;;;;5.45;2.97;;;14.70;99.90;;;;;;5014688;28;20588;-65
2023/06/21 03:24:39;;;;;;;9.00;3.00;;;14.70;99.90;;;;;;5015858;28;20178;-65
2023/06/21 03:27:05;;;;;;;5.90;2.90;;;14.70;99.90;;;;;;5029199;28;20695;-64
2023/06/21 03:29:33;;;;;;;7.18;2.63;;;14.70;99.90;;;;;;5022283;28;20198;-64
2023/06/21 03:31:58;;;;;;;5.20;2.67;;;14.70;99.90;;;;;;5033336;28;20204;-63
2023/06/21 03:34:24;;;;;;;7.70;3.15;;;14.70;99.90;;;;;;5033335;28;20653;-65
2023/06/21 03:36:53;;;;;;;5.43;2.65;;;14.60;99.90;;;;;;5029976;28;20273;-65
2023/06/21 03:39:18;;;;;;;9.93;2.97;;;14.70;99.90;;;;;;5033611;28;20211;-64
2023/06/21 03:41:44;;;;;;;7.45;2.80;;;14.70;99.90;;;;;;5017699;28;20300;-64
2023/06/21 03:44:09;;;;;;;4.75;2.80;;;14.70;99.90;;;;;;5017721;28;20656;-64
2023/06/21 03:46:35;;;;;;;6.25;3.03;;;14.70;99.90;;;;;;5026395;28;20182;-64
2023/06/21 03:49:01;;;;;;;4.57;2.70;;;14.70;99.90;;;;;;5013994;28;20291;-65
2023/06/21 03:51:27;;;;;;;8.65;2.90;;;14.60;99.90;;;;;;5016543;28;20171;-66
2023/06/21 03:53:52;;;;;;;5.15;2.80;;;14.50;99.90;;;;;;5033831;28;20676;-66
2023/06/21 03:56:18;;;;;;;9.07;2.83;;;14.20;99.90;;;;;;5022533;28;20163;-65
2023/06/21 03:58:43;;;;;;;4.40;2.88;;;14.50;99.90;;;;;;5013961;28;20596;-65
2023/06/21 04:01:09;;;;;;;4.30;2.65;;;14.50;99.90;;;;;;5027928;28;20255;-64
2023/06/21 04:03:34;;;;;;;4.78;2.35;;;14.60;99.90;;;;;;5033399;28;20185;-65
2023/06/21 04:06:00;;;;;;;3.63;2.83;;;14.60;99.90;;;;;;5031957;28;20265;-66
2023/06/21 04:08:25;;;;;;;4.78;2.75;;;14.60;99.90;;;;;;5014781;28;20178;-66
2023/06/21 04:10:52;;;;;;;5.78;2.60;;;14.70;99.90;;;;;;5013712;28;20256;-67
2023/06/21 04:13:17;;;;;;;6.22;2.55;;;14.70;99.90;;;;;;5025284;28;20213;-64
2023/06/21 04:15:43;;;;;;;3.58;2.30;;;14.70;99.90;;;;;;5013592;28;20681;-65
2023/06/21 04:18:09;;;;;;;5.00;2.35;;;14.70;99.90;;;;;;5012500;28;20264;-65
2023/06/21 04:20:34;;;;;;;4.97;2.20;;;14.80;99.90;;;;;;5013486;28;20289;-70
2023/06/21 04:23:00;;;;;;;4.50;2.42;;;14.80;99.90;;;;;;5013428;28;20178;-65
2023/06/21 04:25:25;;;;;;;4.40;2.15;;;14.70;99.90;;;;;;5013294;28;20173;-65
2023/06/21 04:27:54;;;;;;;4.00;2.28;;;14.70;99.90;;;;;;5013395;28;20190;-65
2023/06/21 04:30:19;;;;;;;5.70;2.60;;;14.70;99.90;;;;;;5013159;28;20186;-64
2023/06/21 04:32:45;;;;;;;4.05;2.40;;;14.70;99.90;;;;;;5013056;28;20174;-65
2023/06/21 04:35:14;;;;;;;4.60;2.60;;;15.00;99.90;;;;;;5013168;28;20174;-64
2023/06/21 04:37:46;;;;;;;7.85;2.90;;;14.70;99.90;;;;;;5013203;28;20273;-65
2023/06/21 04:40:18;;;;;;;4.97;2.90;;;14.70;99.90;;;;;;5013081;28;20218;-65
2023/06/21 04:42:45;;;;;;;6.55;2.42;;;14.70;99.90;;;;;;5013063;28;20163;-66
2023/06/21 04:45:14;;;;;;;6.25;2.88;;;14.80;99.90;;;;;;5012921;28;20174;-65
2023/06/21 04:47:46;;;;;;;8.02;3.17;;;14.80;99.90;;;;;;5013125;28;20197;-63
2023/06/21 04:50:12;;;;;;;10.15;2.83;;;14.80;99.90;;;;;;5012863;28;20163;-63
2023/06/21 04:52:38;;;;;;;4.95;2.90;;;14.90;99.90;;;;;;5013019;28;20211;-64
2023/06/21 04:55:05;;;;;;;6.43;2.38;;;15.00;99.90;;;;;;5012766;28;20175;-64
2023/06/21 04:57:31;;;;;;;5.68;2.80;;;15.00;99.90;;;;;;5012936;28;20180;-63
2023/06/21 04:59:56;;;;;;;5.07;2.80;;;15.10;99.90;;;;;;5012739;28;20222;-63
2023/06/21 05:02:22;;;;;;;5.40;2.70;;;15.10;99.90;;;;;;5012659;28;20585;-64
2023/06/21 05:04:48;;;;;;;7.38;2.60;;;;;;;;;;5012815;28;20171;-63
2023/06/21 05:07:14;;;;;;;4.47;2.20;;;15.30;99.90;;;;;;5008906;28;20256;-63
2023/06/21 05:09:41;;;;;;;4.38;2.28;;;;;;;;;;4993081;28;20642;-62
2023/06/21 05:12:08;;;;;;;3.88;2.63;;;15.40;99.90;;;;;;5002297;28;20194;-62
2023/06/21 05:14:34;;;;;;;5.05;2.38;;;15.50;99.90;;;;;;5022218;28;20188;-63
2023/06/21 05:17:00;;;;;;;6.47;2.42;;;15.70;99.90;;;;;;5017627;28;20297;-63
2023/06/21 05:19:25;;;;;;;6.70;2.58;;;15.70;99.90;;;;;;5032156;28;20186;-63
2023/06/21 05:21:51;;;;;;;5.00;2.33;;;15.80;99.90;;;;;;5026494;28;20264;-63
2023/06/21 05:24:16;;;;;;;4.95;2.35;;;15.90;99.90;;;;;;5012416;28;20171;-63
2023/06/21 05:26:44;;;;;;;8.23;2.63;;;15.90;99.90;;;;;;5012074;28;20220;-62
2023/06/21 05:29:13;;;;;;;6.32;2.63;;;15.90;99.90;;;;;;5011142;28;20178;-64
2023/06/21 05:31:42;;;;;;;6.32;2.95;;;15.90;99.90;;;;;;5012384;28;20178;-63
2023/06/21 05:34:08;;;;;;;4.63;3.05;;;15.90;99.90;;;;;;5012101;28;20189;-63
2023/06/21 05:36:34;;;;;;;8.30;3.03;;;16.00;99.90;;;;;;5012035;28;20265;-63
2023/06/21 05:38:59;;;;;;;4.32;2.50;;;16.10;99.90;;;;;;5011892;28;20680;-63
2023/06/21 05:41:25;;;;;;;4.63;2.28;;;16.40;99.90;;;;;;5011797;28;20218;-63
2023/06/21 05:43:51;;;;;;;5.80;2.45;;;16.20;99.90;;;;;;5011901;28;20275;-63
2023/06/21 05:46:17;;;;;;;6.65;2.78;;;16.30;99.90;;;;;;5011964;28;20188;-62
2023/06/21 05:48:43;;;;;;;10.05;2.33;;;16.50;99.90;;;;;;5011954;28;20174;-63
2023/06/21 05:51:08;;;;;;;3.17;1.90;;;16.40;99.90;;;;;;5011809;28;20232;-63
2023/06/21 05:53:34;;;;;;;6.28;2.28;;;16.50;99.90;;;;;;5011780;28;20667;-62
2023/06/21 05:56:00;;;;;;;4.85;2.70;;;16.60;99.90;;;;;;5011572;28;20233;-62
2023/06/21 05:58:25;;;;;;;5.88;2.35;;;16.60;99.90;;;;;;5011893;28;20209;-62
2023/06/21 06:00:51;;;;;;;7.10;2.55;;;16.70;99.90;;;;;;5011556;28;20693;-62
2023/06/21 06:03:17;;;;;;;4.65;2.13;;;16.80;99.90;;;;;;5011507;28;20696;-63
2023/06/21 06:05:44;;;;;;;7.45;2.22;;;16.80;99.90;;;;;;5011602;28;20175;-63
2023/06/21 06:08:10;;;;;;;4.60;2.30;;;;;;;;;;5011453;28;20255;-62
2023/06/21 06:10:35;;;;;;;7.45;1.98;;;17.10;99.90;;;;;;5011375;28;20175;-63
2023/06/21 06:13:01;;;;;;;4.82;2.28;;;17.30;99.90;;;;;;5011490;28;20171;-63
2023/06/21 06:15:27;;;;;;;4.90;2.50;;;17.40;99.90;;;;;;5011291;28;20197;-63
2023/06/21 06:17:52;;;;;;;6.03;2.17;;;17.50;99.90;;;;;;5011317;28;20226;-63
2023/06/21 06:20:18;;;;;;;6.53;2.95;;;17.50;99.90;;;;;;5011333;28;20281;-63
2023/06/21 06:22:43;;;;;;;4.93;3.00;;;17.60;99.90;;;;;;5011275;28;20400;-64
2023/06/21 06:25:10;;;;;;;6.68;2.80;;;17.60;99.90;;;;;;5011255;28;20325;-65
2023/06/21 06:27:36;;;;;;;4.47;2.70;;;17.80;99.90;;;;;;5011282;28;20268;-64
2023/06/21 06:30:02;;;;;;;4.47;2.63;;;17.90;99.90;;;;;;5011360;28;20673;-63
2023/06/21 06:32:28;;;;;;;4.68;2.95;;;17.80;99.90;;;;;;5011220;28;20170;-63
2023/06/21 06:34:54;;;;;;;4.35;3.25;;;17.90;99.90;;;;;;5011154;28;20181;-77
2023/06/21 06:37:21;;;;;;;4.45;2.92;;;17.90;99.90;;;;;;5011389;28;20178;-78
2023/06/21 06:39:46;;;;;;;5.97;3.20;;;18.00;99.90;;;;;;5011074;28;20159;-76
2023/06/21 06:42:12;;;;;;;5.22;3.20;;;18.00;99.90;;;;;;5010974;28;20228;-77
2023/06/21 06:44:38;;;;;;;5.82;2.80;;;18.00;99.90;;;;;;5011273;28;20185;-74
2023/06/21 06:47:06;;;;;;;13.30;3.30;;;18.20;99.90;;;;;;5011218;28;20178;-71
2023/06/21 06:49:31;;;;;;;4.90;3.38;;;18.20;99.90;;;;;;5011133;28;20271;-74
2023/06/21 06:51:57;;;;;;;9.25;3.30;;;18.10;99.90;;;;;;5010679;28;20615;-73
2023/06/21 06:54:23;;;;;;;5.00;3.35;;;18.30;99.90;;;;;;5018558;28;20182;-74
2023/06/21 06:56:48;;;;;;;7.18;3.20;;;18.30;99.90;;;;;;5008182;28;20266;-70
2023/06/21 06:59:14;;;;;;;6.88;3.05;;;18.30;99.90;;;;;;5029861;28;20182;-71
2023/06/21 07:01:39;;;;;;;6.95;3.55;;;18.50;99.90;;;;;;5030708;28;20300;-63
2023/06/21 07:04:06;;;;;;;7.43;2.85;;;18.50;99.90;;;;;;5030710;28;20660;-64
2023/06/21 07:06:31;;;;;;;7.70;3.05;;;18.80;99.90;;;;;;5024062;28;20178;-62
2023/06/21 07:08:57;;;;;;;6.07;2.30;;;18.80;99.90;;;;;;5010812;28;20293;-61
2023/06/21 07:11:22;;;;;;;3.83;2.10;;;18.90;99.90;;;;;;5011015;28;20245;-62
2023/06/21 07:13:48;;;;;;;3.92;1.85;;;18.80;99.90;;;;;;5002454;28;20665;-63
2023/06/21 07:16:14;;;;;;;4.18;2.45;;;18.50;99.90;;;;;;5007276;28;20187;-62
2023/06/21 07:18:40;;;;;;;5.53;2.55;;;18.60;99.90;;;;;;5011673;28;20185;-61
2023/06/21 07:21:06;;;;;;;10.23;2.25;;;18.60;99.90;;;;;;5010975;28;20569;-61
2023/06/21 07:23:31;;;;;;;8.80;2.55;;;18.70;99.90;;;;;;5010602;28;20237;-62
2023/06/21 07:25:57;;;;;;;4.75;2.30;;;18.60;99.90;;;;;;5010739;28;20174;-68
2023/06/21 07:28:23;;;;;;;4.90;2.35;;;18.70;99.90;;;;;;5010820;28;20281;-72
2023/06/21 07:30:48;;;;;;;7.03;2.40;;;18.70;99.90;;;;;;5013595;28;20258;-71
2023/06/21 07:33:14;;;;;;;7.63;2.20;;;18.70;99.90;;;;;;4996054;28;20221;-72
2023/06/21 07:35:39;;;;;;;2.88;2.10;;;18.80;99.90;;;;;;5020747;28;20543;-69
2023/06/21 07:38:06;;;;;;;8.65;2.15;;;19.00;99.90;;;;;;5028613;28;20181;-69
2023/06/21 07:40:32;;;;;;;6.57;2.20;;;18.80;99.90;;;;;;5030296;28;20205;-69
2023/06/21 07:42:58;;;;;;;3.40;2.08;;;18.90;99.90;;;;;;5029755;28;20185;-68
2023/06/21 07:45:23;;;;;;;4.70;2.22;;;18.90;99.90;;;;;;4998880;28;20273;-68
2023/06/21 07:47:49;;;;;;;6.55;2.72;;;18.90;99.90;;;;;;5010535;28;20237;-68
2023/06/21 07:50:15;;;;;;;6.38;2.15;;;19.00;99.90;;;;;;5029275;28;20285;-67
2023/06/21 07:52:40;;;;;;;5.25;2.40;;;19.10;99.90;;;;;;5031365;28;20223;-70
2023/06/21 07:55:10;;;;;;;6.70;2.42;;;19.20;99.90;;;;;;5033712;28;20683;-68
2023/06/21 07:57:37;;;;;;;3.95;2.22;;;19.20;99.90;;;;;;5023078;28;20194;-66
2023/06/21 08:00:09;;;;;;;6.20;2.70;;;18.90;99.90;;;;;;5022397;28;20190;-65
2023/06/21 08:02:35;;;;;;;6.68;2.45;;;19.20;99.90;;;;;;5014819;28;20277;-65
2023/06/21 08:05:00;;;;;;;6.75;2.50;;;19.30;99.90;;;;;;5013703;28;20281;-67
2023/06/21 08:07:26;;;;;;;4.15;2.47;;;19.50;99.90;;;;;;5013864;28;20185;-65
2023/06/21 08:09:52;;;;;;;5.10;2.15;;;19.70;99.90;;;;;;4996124;28;20185;-66
2023/06/21 08:12:18;;;;;;;5.45;2.50;;;;;;;;;;4998823;28;20649;-65
2023/06/21 08:14:43;;;;;;;5.60;2.28;;;19.50;99.90;;;;;;5033495;28;20173;-65
2023/06/21 08:17:09;;;;;;;6.03;2.13;;;19.50;99.90;;;;;;5033265;28;20221;-65
2023/06/21 08:19:35;;;;;;;3.30;2.03;;;19.50;99.90;;;;;;5033415;28;20573;-67
2023/06/21 08:22:00;;;;;;;7.88;2.30;;;19.60;99.90;;;;;;5033197;28;20213;-65
2023/06/21 08:24:27;;;;;;;4.63;2.05;;;19.90;99.90;;;;;;5033225;28;20241;-64
2023/06/21 08:26:53;;;;;;;4.03;1.88;;;19.90;99.90;;;;;;5033362;28;20165;-63
2023/06/21 08:29:18;;;;;;;4.57;1.98;;;19.80;99.90;;;;;;5033429;28;20191;-64
2023/06/21 08:31:44;;;;;;;3.80;1.70;;;20.00;99.90;;;;;;5029828;28;20161;-65
2023/06/21 08:34:09;;;;;;;6.82;2.00;;;20.20;99.90;;;;;;5030983;28;20182;-64
2023/06/21 08:36:35;;;;;;;4.20;1.90;;;20.60;99.90;;;;;;5032822;28;20548;-65
2023/06/21 08:39:00;;;;;;;4.18;1.95;;;20.60;99.90;;;;;;5033129;28;20196;-66
2023/06/21 08:41:26;;;;;;;5.40;2.05;;;20.90;99.90;;;;;;5033032;28;20665;-64
2023/06/21 08:43:52;;;;;;;4.25;1.73;;;21.00;99.90;;;;;;5032911;28;20181;-65
2023/06/21 08:46:20;;;;;;;6.60;1.90;;;20.80;99.90;;;;;;5032923;28;20204;-65
2023/06/21 08:48:48;;;;;;;5.70;1.70;;;20.70;99.90;;;;;;5032934;28;20170;-65
2023/06/21 08:51:15;;;;;;;5.63;1.67;;;20.80;99.90;;;;;;5032852;28;20213;-66
2023/06/21 08:54:00;;;;;;;3.40;1.70;;;20.70;99.90;;;;;;5032925;28;20178;-66
2023/06/21 08:56:28;;;;;;;3.72;1.75;;;20.40;99.90;;;;;;5032818;28;20253;-66
2023/06/21 08:59:06;;;;;;;4.40;1.60;;;20.40;99.90;;;;;;5032699;28;20158;-66
2023/06/21 09:01:56;;;;;;;3.92;1.67;;;20.10;99.90;;;;;;5032496;28;20307;-67
2023/06/21 09:04:25;;;;;;;3.75;1.77;;;20.30;99.90;;;;;;5032372;28;20734;-65
2023/06/21 09:06:50;;;;;;;4.20;1.55;;;20.30;99.90;;;;;;5032674;28;20174;-66
2023/06/21 09:09:18;;;;;;;2.47;1.38;;;20.60;99.90;;;;;;5032581;28;20532;-65
2023/06/21 09:11:46;;;;;;;2.72;1.40;;;20.90;99.90;;;;;;5014565;28;20256;-66
2023/06/21 09:14:12;;;;;;;7.55;2.10;;;21.00;99.90;;;;;;5032367;28;20235;-65
2023/06/21 09:16:39;;;;;;;3.95;1.40;;;21.00;99.90;;;;;;5031882;28;20222;-66
2023/06/21 09:19:05;;;;;;;3.45;1.70;;;21.40;99.90;;;;;;5032207;28;20311;-66
2023/06/21 09:21:32;;;;;;;3.45;1.65;;;21.40;99.90;;;;;;5032142;28;20284;-65
2023/06/21 09:23:58;;;;;;;7.60;1.45;;;20.90;99.90;;;;;;5032291;28;20177;-66
2023/06/21 09:26:23;;;;;;;5.97;1.83;;;20.90;99.90;;;;;;5032052;28;20174;-66
2023/06/21 09:28:49;;;;;;;4.65;1.40;;;20.80;99.90;;;;;;5032110;28;20166;-66
2023/06/21 09:31:15;;;;;;;3.80;1.63;;;21.20;99.90;;;;;;5032047;28;20295;-65
2023/06/21 09:33:42;;;;;;;5.15;1.88;;;21.40;99.90;;;;;;5031961;28;20173;-65
2023/06/21 09:36:08;;;;;;;5.43;1.85;;;21.30;99.90;;;;;;5015741;28;20723;-65
2023/06/21 09:38:36;;;;;;;5.30;1.50;;;21.70;99.90;;;;;;5002403;28;20167;-65
2023/06/21 09:41:04;;;;;;;5.18;1.50;;;21.90;99.90;;;;;;5011993;28;20243;-66
2023/06/21 09:43:30;;;;;;;6.47;1.90;;;22.00;99.90;;;;;;5012081;28;20190;-65
2023/06/21 09:46:04;;;;;;;5.22;1.42;;;22.00;99.90;;;;;;5011980;28;20213;-64
2023/06/21 09:48:37;;;;;;;6.20;1.80;;;21.90;99.90;;;;;;5011991;28;20511;-64
2023/06/21 09:51:04;;;;;;;4.20;1.88;;;22.10;99.90;;;;;;5012080;28;20190;-65
2023/06/21 09:53:30;;;;;;;4.28;1.70;;;22.50;99.90;;;;;;5011844;28;20167;-65
2023/06/21 09:55:56;;;;;;;3.92;1.70;;;23.10;99.90;;;;;;5011830;28;20689;-64
2023/06/21 09:58:22;;;;;;;3.97;1.92;;;23.20;99.90;;;;;;5013452;28;20281;-65
2023/06/21 10:00:48;;;;;;;3.83;1.50;;;23.10;99.90;;;;;;5022082;28;20210;-64
2023/06/21 10:03:14;;;;;;;6.80;1.77;;;23.40;99.90;;;;;;5011875;28;20181;-65
2023/06/21 10:05:57;;;;;;;4.93;1.70;;;23.20;99.90;;;;;;5011817;28;20181;-66
2023/06/21 10:08:33;;;;;;;2.97;1.63;;;22.90;99.90;;;;;;5011566;28;20673;-67
2023/06/21 10:10:59;;;;;;;4.20;1.70;;;23.10;99.90;;;;;;5011043;28;20181;-64
2023/06/21 10:13:26;;;;;;;5.57;1.92;;;23.20;99.90;;;;;;5011617;28;20174;-64
2023/06/21 10:15:53;;;;;;;3.00;1.80;;;23.40;99.90;;;;;;5015039;28;20189;-64
2023/06/21 10:18:19;;;;;;;5.13;1.80;;;23.40;99.90;;;;;;5028184;28;20225;-64
2023/06/21 10:20:50;;;;;;;5.35;1.80;;;23.50;99.90;;;;;;5027100;28;20209;-64
2023/06/21 10:23:17;;;;;;;4.43;1.73;;;23.60;99.90;;;;;;5031131;28;20690;-64
2023/06/21 10:25:46;;;;;;;4.57;1.98;;;23.70;99.90;;;;;;5031183;28;20181;-64
2023/06/21 10:28:14;;;;;;;3.85;2.00;;;23.90;99.90;;;;;;5031213;28;20187;-64
2023/06/21 10:30:43;;;;;;;3.92;2.03;;;23.80;99.90;;;;;;5031053;28;20200;-64
2023/06/21 10:33:09;;;;;;;6.07;2.10;;;23.70;99.90;;;;;;5030982;28;20285;-65
2023/06/21 10:35:37;;;;;;;7.57;2.20;;;23.70;99.90;;;;;;5031013;28;20170;-65
2023/06/21 10:38:29;;;;;;;3.97;2.00;;;23.60;99.90;;;;;;5031106;28;20189;-65
2023/06/21 10:40:55;;;;;;;6.93;2.10;;;23.50;99.90;;;;;;5030842;28;20308;-65
2023/06/21 10:43:23;;;;;;;5.07;2.17;;;24.10;99.90;;;;;;5031031;28;20173;-65
2023/06/21 10:45:50;;;;;;;8.43;2.55;;;24.90;99.90;;;;;;5030890;28;20177;-64
2023/06/21 10:48:17;;;;;;;4.22;2.33;;;25.30;99.90;;;;;;5030824;28;20170;-64
2023/06/21 10:50:43;;;;;;;4.93;2.05;;;25.40;99.90;;;;;;5030820;28;20174;-65
2023/06/21 10:53:10;;;;;;;6.85;1.83;;;25.60;99.90;;;;;;5030963;28;20184;-64
2023/06/21 10:55:39;;;;;;;4.85;2.17;;;25.40;99.90;;;;;;5030775;28;20193;-64
2023/06/21 10:58:05;;;;;;;4.40;1.80;;;25.70;99.90;;;;;;5030697;28;20227;-64
2023/06/21 11:00:31;;;;;;;6.55;2.30;;;25.60;99.90;;;;;;5030669;28;20202;-64
2023/06/21 11:02:57;;;;;;;3.22;2.00;;;25.10;99.90;;;;;;5030901;28;20184;-64
2023/06/21 11:05:27;;;;;;;3.90;2.17;;;24.30;99.90;;;;;;5030643;28;20158;-64
2023/06/21 11:08:01;;;;;;;4.50;2.00;;;23.60;99.90;;;;;;5012989;28;20625;-65
2023/06/21 11:10:40;;;;;;;3.47;2.13;;;23.60;99.90;;;;;;5030621;28;20675;-63
2023/06/21 11:13:06;;;;;;;4.28;2.10;;;;;;;;;;5030774;28;20178;-63
2023/06/21 11:15:33;;;;;;;3.67;2.30;;;24.90;99.90;;;;;;5030530;28;20177;-63
2023/06/21 11:18:05;;;;;;;3.42;2.13;;;25.10;99.90;;;;;;5030460;28;20228;-63
2023/06/21 11:20:43;;;;;;;8.38;2.10;;;25.60;99.90;;;;;;5030393;28;20221;-64
2023/06/21 11:23:08;;;;;;;5.38;2.40;;;25.40;99.90;;;;;;5030523;28;20181;-65
2023/06/21 11:25:38;;;;;;;7.82;2.97;;;25.70;99.90;;;;;;5030570;28;20175;-65
2023/06/21 11:28:18;;;;;;;5.82;2.53;;;25.90;99.90;;;;;;5033907;28;20228;-65
2023/06/21 11:31:06;;;;;;;9.32;2.58;;;26.00;99.90;;;;;;5034680;28;20824;-65
2023/06/21 11:33:44;;;;;;;4.65;2.35;;;26.30;99.90;;;;;;5034183;28;20178;-65
2023/06/21 11:36:09;;;;;;;3.15;2.28;;;26.00;99.90;;;;;;5034445;28;20169;-64
2023/06/21 11:38:37;;;;;;;4.80;2.47;;;25.60;99.90;;;;;;5034087;28;20687;-64
2023/06/21 11:41:41;;;;;;;4.60;2.40;;;24.30;99.90;;;;;;5017319;28;20214;-64
2023/06/21 11:44:08;;;;;;;4.78;2.47;;;23.90;99.90;;;;;;4994749;28;20175;-65
2023/06/21 11:46:33;;;;;;;3.45;2.13;;;23.60;99.90;;;;;;4994887;28;20230;-64
2023/06/21 11:49:00;;;;;;;6.35;2.90;;;23.40;99.90;;;;;;4994787;28;20175;-64
2023/06/21 11:51:27;;;;;;;5.47;2.33;;;23.40;99.90;;;;;;4994678;28;20248;-65
2023/06/21 11:53:55;;;;;;;4.68;2.67;;;23.30;99.90;;;;;;4994576;28;20179;-65
2023/06/21 11:56:21;;;;;;;5.07;2.67;;;23.20;99.90;;;;;;4994625;28;20258;-65
2023/06/21 11:58:50;;;;;;;3.90;2.30;;;23.10;99.90;;;;;;4994645;28;20670;-64
2023/06/21 12:01:16;;;;;;;5.65;2.28;;;22.90;99.90;;;;;;4994180;28;20215;-65
2023/06/21 12:03:41;;;;;;;3.30;2.17;;;22.80;99.90;;;;;;4994426;28;20237;-65
2023/06/21 12:06:07;;;;;;;4.63;2.10;;;22.90;99.90;;;;;;4994300;28;20175;-64
2023/06/21 12:08:35;;;;;;;7.07;2.22;;;22.90;99.90;;;;;;4994339;28;20229;-64
2023/06/21 12:11:04;;;;;;;4.13;2.28;;;22.80;99.90;;;;;;4994128;28;20199;-66
2023/06/21 12:13:31;;;;;;;5.60;2.10;;;22.80;99.90;;;;;;4994054;28;20273;-63
2023/06/21 12:16:04;;;;;;;5.70;2.38;;;22.80;99.90;;;;;;4994202;28;20643;-64
2023/06/21 12:18:32;;;;;;;8.70;2.00;;;22.60;99.90;;;;;;4993939;28;20265;-64
2023/06/21 12:21:00;;;;;;;4.00;2.40;;;22.50;99.90;;;;;;4993929;28;20210;-64
2023/06/21 12:23:28;;;;;;;4.20;2.38;;;22.30;99.90;;;;;;4994044;28;20225;-64
2023/06/21 12:26:02;;;;;;;4.22;2.75;;;22.40;99.90;;;;;;4994201;28;20179;-64
2023/06/21 12:28:28;;;;;;;4.57;2.30;;;22.50;99.90;;;;;;4994012;28;20163;-64
2023/06/21 12:31:07;;;;;;;4.57;2.40;;;22.60;99.90;;;;;;5009053;28;20202;-66
2023/06/21 12:33:38;;;;;;;7.05;2.33;;;22.90;99.90;;;;;;5013194;28;20261;-65
2023/06/21 12:36:25;;;;;;;4.97;2.20;;;23.20;99.90;;;;;;5014102;28;20186;-65
2023/06/21 12:39:04;;;;;;;9.48;3.28;;;23.70;99.90;;;;;;5020678;28;20174;-64
2023/06/21 12:41:31;;;;;;;4.15;2.42;;;23.70;99.90;;;;;;5013168;28;20218;-65
2023/06/21 12:44:02;;;;;;;5.55;3.13;;;23.60;99.90;;;;;;5014023;28;20175;-64
2023/06/21 12:46:35;;;;;;;4.60;2.97;;;23.20;99.90;;;;;;5013038;28;20228;-64
2023/06/21 12:49:01;;;;;;;9.05;3.13;;;22.60;99.90;;;;;;5013939;28;20186;-65
2023/06/21 12:51:35;;;;;;;7.22;3.15;;;22.60;99.90;;;;;;5012978;28;20228;-65